createdAt,value
2022-09-17T00:01:43.397Z,79.46
2022-09-17T00:04:12.018Z,79.65
2022-09-17T00:06:40.080Z,80.13
2022-09-17T00:09:09.264Z,79.70
2022-09-17T00:11:41.066Z,79.96
2022-09-17T00:14:13.821Z,80.08
2022-09-17T00:16:46.877Z,79.93
2022-09-17T00:19:23.785Z,79.71
2022-09-17T00:21:52.622Z,80.06
2022-09-17T00:24:21.637Z,80.27
2022-09-17T00:26:50.894Z,80.04
2022-09-17T00:29:18.923Z,80.52
2022-09-17T00:31:47.895Z,80.52
2022-09-17T00:34:15.852Z,80.35
2022-09-17T00:36:43.770Z,80.63
2022-09-17T00:39:13.313Z,80.41
2022-09-17T00:41:41.423Z,80.44
2022-09-17T00:44:50.812Z,80.60
2022-09-17T00:47:27.551Z,80.58
2022-09-17T00:50:20.962Z,80.50
2022-09-17T00:52:59.848Z,80.65
2022-09-17T00:55:36.075Z,80.80
2022-09-17T00:58:06.805Z,80.75
2022-09-17T01:00:35.261Z,80.58
2022-09-17T01:03:04.218Z,80.45
2022-09-17T01:06:01.820Z,80.74
2022-09-17T01:09:06.852Z,80.81
2022-09-17T01:12:02.272Z,80.23
2022-09-17T01:15:13.097Z,80.92
2022-09-17T01:17:58.744Z,80.56
2022-09-17T01:20:41.834Z,80.85
2022-09-17T01:23:31.382Z,80.81
2022-09-17T01:26:03.755Z,80.93
2022-09-17T01:28:46.371Z,80.56
2022-09-17T01:31:42.216Z,81.05
2022-09-17T01:34:21.366Z,80.98
2022-09-17T01:37:05.038Z,80.60
2022-09-17T01:40:01.685Z,80.65
2022-09-17T01:42:36.909Z,80.69
2022-09-17T01:45:20.664Z,80.97
2022-09-17T01:47:59.698Z,80.56
2022-09-17T01:50:34.209Z,80.61
2022-09-17T01:53:04.901Z,81.38
2022-09-17T01:55:36.983Z,81.76
2022-09-17T01:58:28.509Z,81.06
2022-09-17T02:01:03.495Z,81.22
2022-09-17T02:03:31.528Z,80.99
2022-09-17T02:06:28.848Z,81.14
2022-09-17T02:09:22.980Z,81.24
2022-09-17T02:11:59.842Z,81.36
2022-09-17T02:14:46.971Z,81.86
2022-09-17T02:17:35.835Z,81.48
2022-09-17T02:20:04.761Z,81.11
2022-09-17T02:23:03.835Z,81.14
2022-09-17T02:25:47.969Z,81.91
2022-09-17T02:28:28.026Z,81.38
2022-09-17T02:30:55.957Z,81.08
2022-09-17T02:33:25.463Z,81.12
2022-09-17T02:35:53.573Z,81.21
2022-09-17T02:38:30.563Z,81.17
2022-09-17T02:41:37.790Z,80.79
2022-09-17T02:44:22.713Z,80.94
2022-09-17T02:47:25.797Z,81.34
2022-09-17T02:50:11.833Z,81.17
2022-09-17T02:53:01.175Z,80.72
2022-09-17T02:55:43.004Z,80.80
2022-09-17T02:58:35.796Z,80.99
2022-09-17T03:01:15.955Z,80.53
2022-09-17T03:03:46.925Z,80.69
2022-09-17T03:06:15.229Z,80.81
2022-09-17T03:08:43.627Z,80.50
2022-09-17T03:11:16.104Z,80.04
2022-09-17T03:13:44.092Z,80.31
2022-09-17T03:16:12.144Z,80.61
2022-09-17T03:18:42.950Z,80.18
2022-09-17T03:21:13.353Z,80.10
2022-09-17T03:23:41.289Z,79.81
2022-09-17T03:26:10.407Z,79.93
2022-09-17T03:28:38.351Z,79.91
2022-09-17T03:31:06.641Z,79.92
2022-09-17T03:33:34.748Z,80.24
2022-09-17T03:36:02.888Z,80.19
2022-09-17T03:38:30.888Z,79.99
2022-09-17T03:41:09.168Z,79.98
2022-09-17T03:43:37.136Z,79.50
2022-09-17T03:46:05.143Z,79.47
2022-09-17T03:48:36.108Z,78.70
2022-09-17T03:51:04.884Z,78.83
2022-09-17T03:53:34.070Z,78.35
2022-09-17T03:56:04.818Z,77.96
2022-09-17T03:58:33.625Z,77.66
2022-09-17T04:01:01.753Z,76.56
2022-09-17T04:03:31.529Z,76.27
2022-09-17T04:06:00.685Z,75.59
2022-09-17T04:08:28.726Z,75.26
2022-09-17T04:10:56.921Z,74.78
2022-09-17T04:13:25.193Z,74.25
2022-09-17T04:15:53.063Z,73.65
2022-09-17T04:18:21.978Z,72.65
2022-09-17T04:20:49.966Z,71.13
2022-09-17T04:23:18.183Z,69.60
2022-09-17T04:25:46.697Z,68.94
2022-09-17T04:28:14.623Z,67.78
2022-09-17T04:30:43.856Z,67.18
2022-09-17T04:33:12.051Z,66.46
2022-09-17T04:35:40.020Z,65.95
2022-09-17T04:38:07.927Z,65.00
2022-09-17T04:40:38.006Z,63.88
2022-09-17T04:43:06.724Z,63.45
2022-09-17T04:45:34.603Z,63.01
2022-09-17T04:48:03.858Z,62.38
2022-09-17T04:50:32.705Z,62.52
2022-09-17T04:53:00.641Z,62.26
2022-09-17T04:55:30.881Z,61.43
2022-09-17T04:57:58.931Z,61.07
2022-09-17T05:00:27.000Z,60.58
2022-09-17T05:02:58.942Z,59.83
2022-09-17T05:05:26.811Z,59.83
2022-09-17T05:10:41.311Z,59.67
2022-09-17T05:13:09.232Z,59.04
2022-09-17T05:15:37.144Z,58.90
2022-09-17T05:18:05.199Z,58.73
2022-09-17T05:20:33.153Z,57.88
2022-09-17T05:23:01.054Z,57.23
2022-09-17T05:25:29.153Z,56.66
2022-09-17T05:27:57.133Z,56.87
2022-09-17T05:30:25.111Z,56.61
2022-09-17T05:33:03.938Z,56.50
2022-09-17T05:35:32.651Z,56.15
2022-09-17T05:38:02.404Z,56.37
2022-09-17T05:40:31.371Z,56.27
2022-09-17T05:43:04.784Z,56.21
2022-09-17T05:45:35.619Z,55.77
2022-09-17T05:48:04.852Z,55.70
2022-09-17T05:50:33.657Z,54.88
2022-09-17T05:53:08.427Z,55.30
2022-09-17T05:55:36.386Z,55.12
2022-09-17T05:58:19.355Z,54.40
2022-09-17T06:00:49.630Z,54.18
2022-09-17T06:03:20.071Z,53.65
2022-09-17T06:05:56.554Z,53.19
2022-09-17T06:08:30.281Z,53.34
2022-09-17T06:11:04.350Z,53.03
2022-09-17T06:13:32.587Z,52.47
2022-09-17T06:16:01.363Z,52.17
2022-09-17T06:18:31.364Z,51.77
2022-09-17T06:21:05.624Z,51.64
2022-09-17T06:23:37.857Z,52.01
2022-09-17T06:26:07.220Z,52.67
2022-09-17T06:28:41.417Z,52.53
2022-09-17T06:31:12.386Z,51.88
2022-09-17T06:33:40.483Z,51.59
2022-09-17T06:36:14.711Z,51.30
2022-09-17T06:38:43.229Z,51.14
2022-09-17T06:41:11.160Z,51.07
2022-09-17T06:43:39.257Z,50.75
2022-09-17T06:46:09.704Z,50.73
2022-09-17T06:48:38.859Z,51.28
2022-09-17T06:51:11.053Z,51.41
2022-09-17T06:53:40.154Z,51.71
2022-09-17T06:56:09.701Z,51.66
2022-09-17T06:58:38.858Z,51.75
2022-09-17T07:01:07.323Z,52.15
2022-09-17T07:03:35.970Z,52.19
2022-09-17T07:06:04.308Z,52.42
2022-09-17T07:08:35.099Z,51.75
2022-09-17T07:11:04.063Z,51.98
2022-09-17T07:13:33.023Z,51.95
2022-09-17T07:16:02.974Z,51.36
2022-09-17T07:18:30.655Z,51.45
2022-09-17T07:21:06.888Z,51.07
2022-09-17T07:23:36.805Z,50.90
2022-09-17T07:26:05.920Z,51.29
2022-09-17T07:28:34.899Z,51.39
2022-09-17T07:31:06.245Z,51.50
2022-09-17T07:33:36.009Z,51.43
2022-09-17T07:36:07.995Z,50.50
2022-09-17T07:38:36.559Z,49.78
2022-09-17T07:41:14.019Z,49.07
2022-09-17T07:43:44.302Z,48.38
2022-09-17T07:46:18.146Z,47.67
2022-09-17T07:48:47.540Z,46.75
2022-09-17T07:51:20.360Z,46.72
2022-09-17T07:53:51.115Z,46.64
2022-09-17T07:56:19.243Z,47.22
2022-09-17T07:58:47.277Z,47.08
2022-09-17T08:01:17.363Z,46.74
2022-09-17T08:03:53.438Z,46.85
2022-09-17T08:06:26.826Z,47.32
2022-09-17T08:08:59.203Z,47.18
2022-09-17T08:11:54.570Z,47.62
2022-09-17T08:14:17.808Z,47.43
2022-09-17T08:17:04.093Z,47.61
2022-09-17T08:19:33.660Z,46.76
2022-09-17T08:22:01.691Z,46.37
2022-09-17T08:24:30.179Z,46.17
2022-09-17T08:26:58.418Z,46.44
2022-09-17T08:29:26.405Z,46.61
2022-09-17T08:31:54.287Z,47.00
2022-09-17T08:34:22.552Z,46.87
2022-09-17T08:36:50.509Z,47.81
2022-09-17T08:39:18.805Z,48.17
2022-09-17T08:42:11.588Z,48.10
2022-09-17T08:44:47.685Z,48.20
2022-09-17T08:47:40.321Z,48.17
2022-09-17T08:50:18.642Z,48.65
2022-09-17T08:53:15.083Z,48.29
2022-09-17T08:56:19.945Z,48.75
2022-09-17T08:59:01.777Z,48.86
2022-09-17T09:02:00.215Z,49.09
2022-09-17T09:04:32.301Z,49.47
2022-09-17T09:07:14.871Z,49.76
2022-09-17T09:09:53.968Z,50.02
2022-09-17T09:12:31.738Z,50.27
2022-09-17T09:15:03.923Z,50.36
2022-09-17T09:17:44.633Z,49.93
2022-09-17T09:20:23.026Z,50.21
2022-09-17T09:22:53.501Z,50.45
2022-09-17T09:25:32.110Z,50.66
2022-09-17T09:28:12.815Z,50.66
2022-09-17T09:31:13.988Z,50.29
2022-09-17T09:33:47.737Z,50.43
2022-09-17T09:36:24.013Z,50.71
2022-09-17T09:39:10.692Z,50.56
2022-09-17T09:41:45.691Z,50.18
2022-09-17T09:44:16.201Z,50.69
2022-09-17T09:47:13.073Z,51.17
2022-09-17T09:50:19.325Z,50.83
2022-09-17T09:53:19.127Z,51.58
2022-09-17T09:56:12.263Z,51.56
2022-09-17T09:58:44.022Z,52.31
2022-09-17T10:01:21.066Z,52.30
2022-09-17T10:03:53.475Z,52.02
2022-09-17T10:06:22.200Z,52.36
2022-09-17T10:08:56.038Z,52.84
2022-09-17T10:11:27.472Z,53.19
2022-09-17T10:14:26.121Z,52.97
2022-09-17T10:17:25.948Z,53.21
2022-09-17T10:20:11.401Z,53.29
2022-09-17T10:22:43.025Z,53.46
2022-09-17T10:25:33.243Z,54.22
2022-09-17T10:28:06.233Z,54.03
2022-09-17T10:30:35.945Z,54.38
2022-09-17T10:33:25.266Z,54.45
2022-09-17T10:36:07.307Z,54.98
2022-09-17T10:38:43.882Z,55.43
2022-09-17T10:41:22.708Z,55.31
2022-09-17T10:43:51.454Z,54.54
2022-09-17T10:46:28.380Z,52.97
2022-09-17T10:49:13.289Z,52.15
2022-09-17T10:51:42.312Z,52.13
2022-09-17T10:54:38.004Z,51.79
2022-09-17T10:57:10.030Z,51.82
2022-09-17T10:59:52.955Z,51.22
2022-09-17T11:02:47.032Z,51.35
2022-09-17T11:05:20.540Z,51.73
2022-09-17T11:08:23.272Z,52.12
2022-09-17T11:11:11.699Z,52.86
2022-09-17T11:14:06.045Z,54.35
2022-09-17T11:17:04.710Z,55.15
2022-09-17T11:19:51.178Z,55.37
2022-09-17T11:22:31.654Z,56.61
2022-09-17T11:25:09.781Z,56.20
2022-09-17T11:27:47.053Z,56.43
2022-09-17T11:30:24.886Z,56.16
2022-09-17T11:33:31.900Z,56.22
2022-09-17T11:36:10.892Z,56.23
2022-09-17T11:38:49.323Z,56.30
2022-09-17T11:41:42.899Z,56.52
2022-09-17T11:44:44.321Z,57.12
2022-09-17T11:47:47.445Z,56.55
2022-09-17T11:50:47.713Z,56.28
2022-09-17T11:53:52.684Z,57.00
2022-09-17T11:56:49.989Z,58.02
2022-09-17T11:59:40.671Z,58.81
2022-09-17T12:02:26.854Z,59.19
2022-09-17T12:05:26.759Z,59.71
2022-09-17T12:08:08.499Z,60.25
2022-09-17T12:10:46.446Z,60.68
2022-09-17T12:13:23.748Z,60.95
2022-09-17T12:16:18.870Z,61.13
2022-09-17T12:18:56.588Z,61.68
2022-09-17T12:21:31.326Z,61.74
2022-09-17T12:24:29.335Z,62.55
2022-09-17T12:27:35.838Z,62.31
2022-09-17T12:30:10.631Z,62.58
2022-09-17T12:33:08.572Z,63.07
2022-09-17T12:36:13.979Z,62.92
2022-09-17T12:39:04.351Z,63.22
2022-09-17T12:41:55.915Z,63.40
2022-09-17T12:44:26.936Z,63.68
2022-09-17T12:47:16.558Z,64.15
2022-09-17T12:50:02.589Z,64.41
2022-09-17T12:52:37.432Z,64.41
2022-09-17T12:55:25.628Z,64.68
2022-09-17T12:58:02.210Z,64.77
2022-09-17T13:00:34.249Z,65.48
2022-09-17T13:03:53.421Z,65.93
2022-09-17T13:06:38.704Z,65.82
2022-09-17T13:09:13.970Z,66.23
2022-09-17T13:11:58.292Z,66.35
2022-09-17T13:14:53.278Z,66.48
2022-09-17T13:18:12.331Z,66.75
2022-09-17T13:20:51.329Z,66.82
2022-09-17T13:23:34.888Z,66.85
2022-09-17T13:26:07.688Z,67.10
2022-09-17T13:28:47.455Z,67.72
2022-09-17T13:31:45.205Z,67.82
2022-09-17T13:34:19.692Z,67.98
2022-09-17T13:36:53.992Z,67.95
2022-09-17T13:39:41.105Z,68.19
2022-09-17T13:42:17.255Z,68.54
2022-09-17T13:44:54.543Z,68.98
2022-09-17T13:47:30.290Z,69.23
2022-09-17T13:50:43.905Z,69.42
2022-09-17T13:53:15.205Z,69.52
2022-09-17T13:55:44.976Z,69.57
2022-09-17T13:58:22.753Z,70.18
2022-09-17T14:00:52.703Z,70.27
2022-09-17T14:03:39.347Z,70.29
2022-09-17T14:06:08.653Z,70.69
2022-09-17T14:08:46.114Z,70.67
2022-09-17T14:11:27.388Z,70.44
2022-09-17T14:14:05.004Z,70.99
2022-09-17T14:16:39.384Z,71.12
2022-09-17T14:19:16.782Z,70.69
2022-09-17T14:22:00.335Z,70.67
2022-09-17T14:24:50.940Z,71.29
2022-09-17T14:27:42.074Z,70.88
2022-09-17T14:30:32.046Z,71.32
2022-09-17T14:33:23.577Z,71.18
2022-09-17T14:35:59.005Z,71.23
2022-09-17T14:38:54.103Z,71.61
2022-09-17T14:41:33.991Z,71.28
2022-09-17T14:44:07.923Z,71.57
2022-09-17T14:46:49.813Z,71.38
2022-09-17T14:49:28.223Z,71.33
2022-09-17T14:52:02.648Z,71.48
2022-09-17T14:54:36.248Z,71.36
2022-09-17T14:57:22.954Z,71.19
2022-09-17T14:59:55.361Z,71.37
2022-09-17T15:02:28.880Z,71.71
2022-09-17T15:04:57.901Z,71.51
2022-09-17T15:07:27.133Z,71.89
2022-09-17T15:09:59.427Z,71.93
2022-09-17T15:12:31.067Z,71.91
2022-09-17T15:14:59.509Z,72.66
2022-09-17T15:17:27.716Z,71.82
2022-09-17T15:19:59.371Z,71.90
2022-09-17T15:22:34.466Z,72.56
2022-09-17T15:25:12.212Z,72.48
2022-09-17T15:27:46.340Z,72.87
2022-09-17T15:30:21.822Z,72.71
2022-09-17T15:32:58.932Z,72.72
2022-09-17T15:35:34.673Z,72.38
2022-09-17T15:38:22.701Z,72.75
2022-09-17T15:40:52.612Z,72.84
2022-09-17T15:43:35.054Z,73.16
2022-09-17T15:46:42.342Z,72.71
2022-09-17T15:49:38.928Z,73.08
2022-09-17T15:52:44.857Z,73.65
2022-09-17T15:56:14.070Z,73.46
2022-09-17T15:58:42.289Z,73.01
2022-09-17T16:01:19.275Z,73.82
2022-09-17T16:03:48.938Z,73.21
2022-09-17T16:06:19.850Z,73.38
2022-09-17T16:08:50.982Z,73.58
2022-09-17T16:11:21.525Z,73.63
2022-09-17T16:13:57.474Z,73.51
2022-09-17T16:16:31.972Z,73.33
2022-09-17T16:19:00.078Z,73.61
2022-09-17T16:21:28.440Z,73.84
2022-09-17T16:23:58.945Z,73.71
2022-09-17T16:26:31.726Z,73.32
2022-09-17T16:29:06.083Z,74.21
2022-09-17T16:31:35.077Z,73.40
2022-09-17T16:34:03.089Z,73.81
2022-09-17T16:36:34.132Z,73.99
2022-09-17T16:39:02.034Z,73.38
2022-09-17T16:41:48.375Z,73.78
2022-09-17T16:44:16.301Z,73.97
2022-09-17T16:46:44.168Z,73.68
2022-09-17T16:49:13.056Z,73.77
2022-09-17T16:51:41.024Z,73.76
2022-09-17T16:54:09.029Z,74.15
2022-09-17T16:56:37.240Z,73.58
2022-09-17T16:59:05.934Z,73.89
2022-09-17T17:01:33.914Z,73.89
2022-09-17T17:04:02.925Z,73.75
2022-09-17T17:06:32.913Z,74.18
2022-09-17T17:09:01.722Z,73.60
2022-09-17T17:11:30.045Z,74.22
2022-09-17T17:13:58.125Z,73.54
2022-09-17T17:16:26.477Z,73.34
2022-09-17T17:18:56.044Z,73.78
2022-09-17T17:21:24.077Z,74.08
2022-09-17T17:23:51.961Z,73.98
2022-09-17T17:26:21.635Z,74.16
2022-09-17T17:28:49.755Z,74.44
2022-09-17T17:31:18.012Z,73.96
2022-09-17T17:33:46.978Z,74.61
2022-09-17T17:36:14.948Z,74.05
2022-09-17T17:38:43.875Z,73.62
2022-09-17T17:41:14.894Z,73.85
2022-09-17T17:43:43.001Z,73.98
2022-09-17T17:46:12.968Z,74.24
2022-09-17T17:48:41.958Z,74.00
2022-09-17T17:51:11.078Z,74.13
2022-09-17T17:53:43.394Z,74.26
2022-09-17T17:56:13.391Z,74.61
2022-09-17T17:58:41.961Z,74.02
2022-09-17T18:01:15.933Z,74.43
2022-09-17T18:03:44.334Z,74.63
2022-09-17T18:06:12.604Z,74.09
2022-09-17T18:08:42.236Z,74.42
2022-09-17T18:11:12.377Z,74.10
2022-09-17T18:13:42.277Z,73.98
2022-09-17T18:16:20.020Z,74.35
2022-09-17T18:18:48.982Z,74.34
2022-09-17T18:21:22.895Z,73.93
2022-09-17T18:23:51.956Z,74.49
2022-09-17T18:26:28.589Z,74.46
2022-09-17T18:28:57.230Z,74.34
2022-09-17T18:31:31.908Z,74.66
2022-09-17T18:34:02.994Z,74.47
2022-09-17T18:36:34.073Z,74.35
2022-09-17T18:39:33.177Z,74.95
2022-09-17T18:41:54.394Z,74.34
2022-09-17T18:44:23.047Z,74.45
2022-09-17T18:46:51.963Z,74.51
2022-09-17T18:49:20.171Z,74.76
2022-09-17T18:51:48.258Z,74.99
2022-09-17T18:54:16.185Z,74.64
2022-09-17T18:56:44.182Z,74.70
2022-09-17T18:59:12.346Z,74.72
2022-09-17T19:01:40.336Z,74.98
2022-09-17T19:04:09.153Z,74.85
2022-09-17T19:06:37.110Z,74.54
2022-09-17T19:09:06.362Z,74.81
2022-09-17T19:11:37.106Z,74.68
2022-09-17T19:14:05.448Z,74.90
2022-09-17T19:16:33.442Z,74.61
2022-09-17T19:19:01.743Z,75.05
2022-09-17T19:21:29.893Z,74.69
2022-09-17T19:23:57.940Z,74.50
2022-09-17T19:26:29.952Z,74.82
2022-09-17T19:29:01.112Z,74.45
2022-09-17T19:31:29.513Z,74.76
2022-09-17T19:33:59.491Z,74.97
2022-09-17T19:36:27.538Z,74.80
2022-09-17T19:38:55.615Z,74.77
2022-09-17T19:41:25.734Z,74.84
2022-09-17T19:43:55.565Z,74.76
2022-09-17T19:46:24.785Z,74.92
2022-09-17T19:48:58.111Z,74.56
2022-09-17T19:51:29.536Z,74.97
2022-09-17T19:53:57.814Z,74.84
2022-09-17T19:56:29.974Z,74.86
2022-09-17T19:58:57.910Z,74.67
2022-09-17T20:01:25.912Z,74.95
2022-09-17T20:03:56.739Z,75.16
2022-09-17T20:06:24.598Z,75.29
2022-09-17T20:08:55.025Z,75.00
2022-09-17T20:11:25.369Z,74.58
2022-09-17T20:14:08.122Z,74.64
2022-09-17T20:16:39.203Z,74.62
2022-09-17T20:19:08.554Z,75.19
2022-09-17T20:21:36.656Z,75.03
2022-09-17T20:24:07.513Z,75.11
2022-09-17T20:26:36.195Z,74.99
2022-09-17T20:29:04.619Z,75.14
2022-09-17T20:31:51.813Z,75.47
2022-09-17T20:34:19.745Z,75.31
2022-09-17T20:36:47.690Z,74.94
2022-09-17T20:39:22.866Z,75.26
2022-09-17T20:41:51.391Z,75.04
2022-09-17T20:44:19.473Z,75.26
2022-09-17T20:46:49.363Z,74.69
2022-09-17T20:49:17.303Z,75.05
2022-09-17T20:51:45.182Z,75.46
2022-09-17T20:54:13.476Z,75.11
2022-09-17T20:56:41.625Z,75.54
2022-09-17T20:59:21.028Z,75.03
2022-09-17T21:01:50.444Z,74.87
2022-09-17T21:04:20.597Z,75.52
2022-09-17T21:06:53.511Z,75.14
2022-09-17T21:09:21.636Z,75.51
2022-09-17T21:11:50.002Z,75.39
2022-09-17T21:14:19.058Z,75.08
2022-09-17T21:16:47.369Z,75.35
2022-09-17T21:19:16.884Z,75.64
2022-09-17T21:21:45.466Z,75.02
2022-09-17T21:24:13.452Z,75.45
2022-09-17T21:26:41.557Z,75.54
2022-09-17T21:29:09.752Z,75.19
2022-09-17T21:31:38.848Z,75.27
2022-09-17T21:34:10.545Z,75.31
2022-09-17T21:36:41.007Z,75.79
2022-09-17T21:39:16.305Z,75.76
2022-09-17T21:41:45.379Z,75.50
2022-09-17T21:44:14.851Z,75.33
2022-09-17T21:46:43.691Z,75.48
2022-09-17T21:49:13.743Z,75.24
2022-09-17T21:51:43.343Z,75.52
2022-09-17T21:54:14.211Z,75.67
2022-09-17T21:56:42.577Z,76.09
2022-09-17T21:59:14.785Z,75.43
2022-09-17T22:01:47.668Z,75.60
2022-09-17T22:04:19.280Z,75.65
2022-09-17T22:06:48.655Z,75.66
2022-09-17T22:09:20.529Z,75.82
2022-09-17T22:11:49.377Z,75.44
2022-09-17T22:14:23.090Z,75.70
2022-09-17T22:16:54.121Z,75.66
2022-09-17T22:19:27.985Z,75.49
2022-09-17T22:21:56.848Z,75.71
2022-09-17T22:24:25.934Z,76.17
2022-09-17T22:26:57.807Z,75.59
2022-09-17T22:29:28.883Z,75.71
2022-09-17T22:31:58.049Z,75.23
2022-09-17T22:34:27.221Z,76.06
2022-09-17T22:36:55.103Z,75.67
2022-09-17T22:39:23.436Z,75.87
2022-09-17T22:41:51.560Z,75.86
2022-09-17T22:44:21.216Z,75.64
2022-09-17T22:46:51.819Z,76.16
2022-09-17T22:49:21.052Z,75.91
2022-09-17T22:51:49.100Z,75.65
2022-09-17T22:54:18.690Z,75.80
2022-09-17T22:56:48.267Z,75.57
2022-09-17T22:59:16.878Z,75.81
2022-09-17T23:01:45.011Z,75.88
2022-09-17T23:04:12.936Z,75.80
2022-09-17T23:06:44.894Z,75.30
2022-09-17T23:09:15.559Z,76.25
2022-09-17T23:11:43.560Z,75.63
2022-09-17T23:14:14.156Z,76.09
2022-09-17T23:16:48.163Z,76.07
2022-09-17T23:19:17.822Z,75.96
2022-09-17T23:21:46.355Z,76.17
2022-09-17T23:24:21.772Z,76.06
2022-09-17T23:26:50.291Z,75.84
2022-09-17T23:29:18.512Z,75.99
2022-09-17T23:31:47.456Z,75.75
2022-09-17T23:34:15.450Z,76.34
2022-09-17T23:36:43.422Z,75.69
2022-09-17T23:39:13.255Z,76.46
2022-09-17T23:41:59.975Z,76.20
2022-09-17T23:44:29.138Z,76.20
2022-09-17T23:46:57.024Z,76.03
2022-09-17T23:49:25.032Z,75.87
2022-09-17T23:51:54.006Z,75.91
2022-09-17T23:54:21.999Z,76.12
2022-09-17T23:56:49.880Z,76.08
2022-09-17T23:59:17.928Z,76.05
